Weather History for Mojave, CA

Change the Weather History Date:

Friday, May 31, 2013

  Actual Average Record
Temperature  
Mean Temperature 80 °F -  
Max Temperature 93 °F 85 °F 102 °F (2001)
Min Temperature 68 °F 59 °F 42 °F (2011)
Cooling Degree Days 16    
Growing Degree Days 30 (Base 50)    
Moisture  
Dew Point 29 °F    
Average Humidity 18    
Maximum Humidity 37    
Minimum Humidity 9    
Precipitation  
Precipitation 0.00 in - - ()
Sea Level Pressure  
Sea Level Pressure 29.93 in    
Wind  
Wind Speed 17 mph (NW)    
Max Wind Speed 40 mph    
Max Gust Speed 52 mph    
Visibility 10 miles    
Events      
Averages and records for this station are not official NWS values.
T = Trace of Precipitation, MM = Missing Value Source: NWS Daily Summary

Daily Weather History Graph

Daily Weather History Graph

Search for Another Location

Airport:

Trip Planner

Search our weather history database for the weather conditions in past years. The results will help you decide how hot, cold, wet, or windy it might be!

Date:

Astronomy

May. 31, 2013 Rise Set
Actual Time 5:39 AM PDT 8:01 PM PDT
Civil Twilight 5:10 AM PDT 8:30 PM PDT
Nautical Twilight 4:34 AM PDT 9:06 PM PDT
Astronomical Twilight 3:55 AM PDT 9:45 PM PDT
Moon 12:49 AM PDT (5/31) 12:48 PM PDT (5/31)
Length of Visible Light 15h 19m
Length of Day
14h 21m
Waning Gibbous, 50% of the Moon is Illuminated
May 31
Waning Gibbous
May 31
Last Quarter
Jun 8
New
Jun 16
First Quarter
Jun 23
Full

Hourly Weather History & Observations

Time (PDT) Temp. Dew Point Humidity Pressure Visibility Wind Dir Wind Speed Gust Speed Precip Events Conditions
12:15 AM 68.0 °F 41.0 °F 37% 29.92 in 10.0 mi West 13.8 mph 32.2 mph N/A   Clear
12:35 AM 68.0 °F 41.0 °F 37% 29.92 in 10.0 mi West 16.1 mph 23.0 mph N/A   Clear
12:55 AM 68.0 °F 39.2 °F 35% 29.91 in 10.0 mi West 19.6 mph 28.8 mph N/A   Clear
1:15 AM 71.6 °F 37.4 °F 29% 29.91 in 10.0 mi West 19.6 mph 27.6 mph N/A   Clear
1:35 AM 68.0 °F 37.4 °F 33% 29.90 in 10.0 mi WSW 21.9 mph 28.8 mph N/A   Clear
1:55 AM 68.0 °F 37.4 °F 33% 29.88 in 10.0 mi West 24.2 mph 29.9 mph N/A   Clear
2:15 AM 68.0 °F 37.4 °F 33% 29.84 in 10.0 mi West 36.8 mph 47.2 mph N/A   Clear
2:35 AM 68.0 °F 33.8 °F 28% 29.85 in 10.0 mi West 33.4 mph 46.0 mph N/A   Clear
2:55 AM 68.0 °F 33.8 °F 28% 29.83 in 8.0 mi West 39.1 mph 48.3 mph N/A   Clear
3:15 AM 68.0 °F 32.0 °F 26% 29.83 in 7.0 mi West 36.8 mph 51.8 mph N/A   Clear
3:35 AM 68.0 °F 30.2 °F 24% 29.83 in 10.0 mi West 40.3 mph 47.2 mph N/A   Clear
3:55 AM 68.0 °F 28.4 °F 23% 29.83 in 10.0 mi West 39.1 mph 48.3 mph N/A   Clear
4:15 AM 68.0 °F 23.0 °F 18% 29.84 in 8.0 mi West 40.3 mph 49.5 mph N/A   Clear
4:35 AM 68.0 °F 19.4 °F 16% 29.84 in 10.0 mi West 36.8 mph 49.5 mph N/A   Clear
4:55 AM 68.0 °F 14.0 °F 12% 29.88 in 10.0 mi North 20.7 mph 31.1 mph N/A   Clear
5:15 AM 69.8 °F 14.0 °F 12% 29.89 in 10.0 mi NNW 18.4 mph 35.7 mph N/A   Clear
5:35 AM 71.6 °F 14.0 °F 11% 29.90 in 10.0 mi WNW 20.7 mph 29.9 mph N/A   Clear
5:55 AM 68.0 °F 15.8 °F 13% 29.91 in 10.0 mi WNW 12.7 mph 26.5 mph N/A   Clear
6:15 AM 69.8 °F 14.0 °F 12% 29.93 in 10.0 mi NNW 6.9 mph - N/A   Clear
6:35 AM 73.4 °F 12.2 °F 10% 29.94 in 10.0 mi NNW 6.9 mph - N/A   Clear
6:55 AM 73.4 °F 15.8 °F 11% 29.95 in 10.0 mi NW 8.1 mph - N/A   Clear
7:15 AM 73.4 °F 17.6 °F 12% 29.95 in 10.0 mi West 4.6 mph - N/A   Clear
7:35 AM 75.2 °F 17.6 °F 11% 29.96 in 10.0 mi East 6.9 mph - N/A   Clear
7:55 AM 75.2 °F 15.8 °F 11% 29.97 in 10.0 mi ENE 5.8 mph - N/A   Clear
8:15 AM 77.0 °F 15.8 °F 10% 29.97 in 10.0 mi Calm Calm - N/A   Clear
8:35 AM 77.0 °F 15.8 °F 10% 29.98 in 10.0 mi Calm Calm - N/A   Clear
8:55 AM 77.0 °F 15.8 °F 10% 29.98 in 10.0 mi Calm Calm - N/A   Clear
9:15 AM 78.8 °F 17.6 °F 10% 29.98 in 10.0 mi SE 6.9 mph - N/A   Clear
9:35 AM 80.6 °F 19.4 °F 10% 29.99 in 10.0 mi SE 5.8 mph - N/A   Clear
9:55 AM 80.6 °F 23.0 °F 12% 29.99 in 10.0 mi East 4.6 mph - N/A   Clear
10:15 AM 84.2 °F 26.6 °F 12% 29.99 in 10.0 mi NE 12.7 mph - N/A   Clear
10:35 AM 84.2 °F 26.6 °F 12% 29.99 in 10.0 mi East 9.2 mph - N/A   Clear
10:55 AM 84.2 °F 28.4 °F 13% 29.99 in 10.0 mi North 5.8 mph - N/A   Clear
11:15 AM 84.2 °F 26.6 °F 12% 29.99 in 10.0 mi East 6.9 mph - N/A   Clear
11:35 AM 86.0 °F 26.6 °F 12% 29.99 in 10.0 mi ENE 4.6 mph 17.3 mph N/A   Clear
11:55 AM 86.0 °F 26.6 °F 12% 29.99 in 10.0 mi East 5.8 mph - N/A   Clear
12:15 PM 86.0 °F 26.6 °F 12% 29.98 in 10.0 mi East 8.1 mph - N/A   Clear
12:35 PM 89.6 °F 28.4 °F 11% 29.98 in 10.0 mi ENE 9.2 mph - N/A   Clear
12:55 PM 89.6 °F 28.4 °F 11% 29.97 in 10.0 mi NNE 5.8 mph - N/A   Clear
1:15 PM 89.6 °F 26.6 °F 10% 29.97 in 10.0 mi NNE 8.1 mph 17.3 mph N/A   Clear
1:35 PM 89.6 °F 26.6 °F 10% 29.96 in 10.0 mi East 5.8 mph - N/A   Clear
1:55 PM 89.6 °F 26.6 °F 10% 29.95 in 10.0 mi East 9.2 mph - N/A   Clear
2:15 PM 91.4 °F 26.6 °F 10% 29.95 in 10.0 mi East 10.4 mph 17.3 mph N/A   Clear
2:35 PM 91.4 °F 26.6 °F 10% 29.94 in 10.0 mi SSE 4.6 mph - N/A   Clear
2:55 PM 91.4 °F 26.6 °F 10% 29.94 in 10.0 mi East 5.8 mph - N/A   Clear
3:15 PM 91.4 °F 24.8 °F 9% 29.93 in 10.0 mi WNW 5.8 mph - N/A   Clear
3:35 PM 91.4 °F 24.8 °F 9% 29.92 in 10.0 mi East 11.5 mph 17.3 mph N/A   Clear
3:55 PM 91.4 °F 24.8 °F 9% 29.92 in 10.0 mi Calm Calm - N/A   Clear
4:15 PM 91.4 °F 24.8 °F 9% 29.92 in 10.0 mi Calm Calm - N/A   Clear
4:35 PM 93.2 °F 24.8 °F 9% 29.91 in 10.0 mi East 10.4 mph - N/A   Clear
4:55 PM 93.2 °F 24.8 °F 9% 29.91 in 10.0 mi WSW 6.9 mph - N/A   Clear
5:15 PM 91.4 °F 37.4 °F 15% 29.91 in 10.0 mi WNW 17.3 mph - N/A   Clear
5:35 PM 91.4 °F 39.2 °F 16% 29.91 in 10.0 mi WNW 19.6 mph 26.5 mph N/A   Clear
5:55 PM 89.6 °F 39.2 °F 17% 29.90 in 10.0 mi WNW 18.4 mph - N/A   Clear
6:15 PM 87.8 °F 39.2 °F 18% 29.90 in 10.0 mi WNW 20.7 mph 25.3 mph N/A   Clear
6:35 PM 86.0 °F 39.2 °F 19% 29.91 in 10.0 mi WNW 21.9 mph - N/A   Clear
6:55 PM 84.2 °F 39.2 °F 20% 29.91 in 10.0 mi WNW 23.0 mph - N/A   Clear
7:15 PM 82.4 °F 39.2 °F 21% 29.91 in 10.0 mi WNW 20.7 mph 28.8 mph N/A   Clear
7:35 PM 82.4 °F 39.2 °F 21% 29.91 in 10.0 mi WNW 21.9 mph - N/A   Clear
7:55 PM 80.6 °F 39.2 °F 23% 29.92 in 10.0 mi WNW 20.7 mph - N/A   Clear
8:15 PM 78.8 °F 39.2 °F 24% 29.92 in 10.0 mi West 24.2 mph - N/A   Clear
8:35 PM 77.0 °F 39.2 °F 26% 29.92 in 10.0 mi West 21.9 mph - N/A   Clear
8:55 PM 77.0 °F 39.2 °F 26% 29.92 in 10.0 mi WNW 20.7 mph 26.5 mph N/A   Clear
9:15 PM 77.0 °F 39.2 °F 26% 29.93 in 10.0 mi WNW 19.6 mph - N/A   Clear
9:35 PM 77.0 °F 37.4 °F 24% 29.93 in 10.0 mi WNW 17.3 mph - N/A   Clear
9:55 PM 77.0 °F 37.4 °F 24% 29.94 in 10.0 mi WNW 17.3 mph - N/A   Clear
10:15 PM 77.0 °F 37.4 °F 24% 29.94 in 10.0 mi WNW 17.3 mph - N/A   Clear
10:35 PM 77.0 °F 37.4 °F 24% 29.94 in 10.0 mi WNW 15.0 mph - N/A   Clear
10:55 PM 77.0 °F 37.4 °F 24% 29.94 in 10.0 mi WNW 16.1 mph - N/A   Clear
11:15 PM 77.0 °F 37.4 °F 24% 29.94 in 10.0 mi WNW 18.4 mph - N/A   Clear
11:35 PM 75.2 °F 37.4 °F 25% 29.95 in 10.0 mi WNW 18.4 mph - N/A   Clear
11:55 PM 75.2 °F 37.4 °F 25% 29.95 in 10.0 mi WNW 17.3 mph - N/A   Clear